sensor_id;sensor_type;location;lat;lon;timestamp;pressure;altitude;pressure_sealevel;temperature;humidity
47815;BME280;33579;50.058;18.130;2023-03-20T00:00:33;99215.81;;;8.40;83.55
47815;BME280;33579;50.058;18.130;2023-03-20T00:01:35;99222.00;;;8.39;83.58
47815;BME280;33579;50.058;18.130;2023-03-20T00:02:37;99221.66;;;8.44;83.68
47815;BME280;33579;50.058;18.130;2023-03-20T00:03:38;99220.72;;;8.45;83.51
47815;BME280;33579;50.058;18.130;2023-03-20T00:04:40;99219.75;;;8.46;83.63
47815;BME280;33579;50.058;18.130;2023-03-20T00:05:42;99215.97;;;8.50;83.32
47815;BME280;33579;50.058;18.130;2023-03-20T00:06:43;99217.41;;;8.54;83.13
47815;BME280;33579;50.058;18.130;2023-03-20T00:07:46;99222.50;;;8.56;83.14
47815;BME280;33579;50.058;18.130;2023-03-20T00:08:51;99221.09;;;8.63;83.04
47815;BME280;33579;50.058;18.130;2023-03-20T00:09:52;99220.25;;;8.63;82.78
47815;BME280;33579;50.058;18.130;2023-03-20T00:10:54;99219.88;;;8.67;82.79
47815;BME280;33579;50.058;18.130;2023-03-20T00:11:56;99224.06;;;8.70;82.92
47815;BME280;33579;50.058;18.130;2023-03-20T00:12:57;99217.25;;;8.67;82.42
47815;BME280;33579;50.058;18.130;2023-03-20T00:14:08;99224.75;;;8.72;82.46
47815;BME280;33579;50.058;18.130;2023-03-20T00:15:27;99216.09;;;8.71;82.28
47815;BME280;33579;50.058;18.130;2023-03-20T00:16:41;99221.91;;;8.75;82.19
47815;BME280;33579;50.058;18.130;2023-03-20T00:17:43;99218.72;;;8.71;82.59
47815;BME280;33579;50.058;18.130;2023-03-20T00:18:44;99222.41;;;8.69;83.03
47815;BME280;33579;50.058;18.130;2023-03-20T00:19:46;99219.78;;;8.69;83.03
47815;BME280;33579;50.058;18.130;2023-03-20T00:20:49;99218.22;;;8.66;83.10
47815;BME280;33579;50.058;18.130;2023-03-20T00:21:52;99222.84;;;8.74;82.94
47815;BME280;33579;50.058;18.130;2023-03-20T00:22:54;99221.78;;;8.77;82.70
47815;BME280;33579;50.058;18.130;2023-03-20T00:23:56;99221.69;;;8.78;82.44
47815;BME280;33579;50.058;18.130;2023-03-20T00:24:57;99225.13;;;8.79;82.53
47815;BME280;33579;50.058;18.130;2023-03-20T00:25:59;99222.50;;;8.79;82.29
47815;BME280;33579;50.058;18.130;2023-03-20T00:27:01;99214.50;;;8.80;82.07
47815;BME280;33579;50.058;18.130;2023-03-20T00:29:26;99214.50;;;8.80;82.37
47815;BME280;33579;50.058;18.130;2023-03-20T00:30:29;99219.63;;;8.82;82.22
47815;BME280;33579;50.058;18.130;2023-03-20T00:31:34;99218.69;;;8.83;82.24
47815;BME280;33579;50.058;18.130;2023-03-20T00:32:36;99211.63;;;8.83;81.99
47815;BME280;33579;50.058;18.130;2023-03-20T00:33:38;99219.06;;;8.78;82.14
47815;BME280;33579;50.058;18.130;2023-03-20T00:34:39;99213.56;;;8.81;82.07
47815;BME280;33579;50.058;18.130;2023-03-20T00:35:41;99216.88;;;8.83;82.19
47815;BME280;33579;50.058;18.130;2023-03-20T00:36:43;99205.56;;;8.83;82.10
47815;BME280;33579;50.058;18.130;2023-03-20T00:37:44;99213.56;;;8.81;82.24
47815;BME280;33579;50.058;18.130;2023-03-20T00:38:46;99206.03;;;8.77;82.57
47815;BME280;33579;50.058;18.130;2023-03-20T00:39:48;99211.03;;;8.80;82.48
47815;BME280;33579;50.058;18.130;2023-03-20T00:40:49;99202.22;;;8.81;82.17
47815;BME280;33579;50.058;18.130;2023-03-20T00:41:56;99205.94;;;8.78;82.16
47815;BME280;33579;50.058;18.130;2023-03-20T00:43:00;99204.38;;;8.76;82.27
47815;BME280;33579;50.058;18.130;2023-03-20T00:45:22;99206.53;;;8.70;82.30
47815;BME280;33579;50.058;18.130;2023-03-20T00:46:25;99209.28;;;8.69;82.63
47815;BME280;33579;50.058;18.130;2023-03-20T00:47:27;99206.53;;;8.70;82.76
47815;BME280;33579;50.058;18.130;2023-03-20T00:48:29;99201.16;;;8.72;82.29
47815;BME280;33579;50.058;18.130;2023-03-20T00:49:33;99206.78;;;8.67;82.69
47815;BME280;33579;50.058;18.130;2023-03-20T00:50:35;99208.69;;;8.65;82.73
47815;BME280;33579;50.058;18.130;2023-03-20T00:51:39;99207.63;;;8.68;82.78
47815;BME280;33579;50.058;18.130;2023-03-20T00:52:41;99202.00;;;8.73;82.57
47815;BME280;33579;50.058;18.130;2023-03-20T00:53:43;99201.75;;;8.76;82.51
47815;BME280;33579;50.058;18.130;2023-03-20T00:54:45;99204.28;;;8.77;82.54
47815;BME280;33579;50.058;18.130;2023-03-20T00:55:47;99204.50;;;8.63;83.71
47815;BME280;33579;50.058;18.130;2023-03-20T00:57:53;99199.47;;;8.37;85.53
47815;BME280;33579;50.058;18.130;2023-03-20T00:58:55;99198.06;;;8.21;86.18
47815;BME280;33579;50.058;18.130;2023-03-20T01:00:25;99202.59;;;8.19;86.68
47815;BME280;33579;50.058;18.130;2023-03-20T01:01:28;99205.56;;;8.14;87.14
47815;BME280;33579;50.058;18.130;2023-03-20T01:02:31;99209.25;;;8.12;87.23
47815;BME280;33579;50.058;18.130;2023-03-20T01:03:33;99208.06;;;8.16;87.00
47815;BME280;33579;50.058;18.130;2023-03-20T01:04:39;99212.72;;;8.24;87.07
47815;BME280;33579;50.058;18.130;2023-03-20T01:05:41;99205.81;;;8.23;87.42
47815;BME280;33579;50.058;18.130;2023-03-20T01:06:43;99208.91;;;8.28;87.22
47815;BME280;33579;50.058;18.130;2023-03-20T01:07:46;99199.03;;;8.32;87.08
47815;BME280;33579;50.058;18.130;2023-03-20T01:08:47;99204.88;;;8.35;87.21
47815;BME280;33579;50.058;18.130;2023-03-20T01:09:49;99214.84;;;8.30;87.70
47815;BME280;33579;50.058;18.130;2023-03-20T01:10:54;99215.56;;;8.21;87.88
47815;BME280;33579;50.058;18.130;2023-03-20T01:11:58;99214.38;;;8.13;88.34
47815;BME280;33579;50.058;18.130;2023-03-20T01:13:00;99211.03;;;8.11;88.62
47815;BME280;33579;50.058;18.130;2023-03-20T01:14:02;99212.56;;;8.14;88.54
47815;BME280;33579;50.058;18.130;2023-03-20T01:15:15;99216.66;;;8.18;88.54
47815;BME280;33579;50.058;18.130;2023-03-20T01:16:22;99213.06;;;8.19;88.26
47815;BME280;33579;50.058;18.130;2023-03-20T01:17:26;99212.38;;;8.17;88.47
47815;BME280;33579;50.058;18.130;2023-03-20T01:18:28;99207.47;;;8.12;88.43
47815;BME280;33579;50.058;18.130;2023-03-20T01:19:30;99214.72;;;8.09;89.33
47815;BME280;33579;50.058;18.130;2023-03-20T01:20:32;99209.47;;;8.09;89.46
47815;BME280;33579;50.058;18.130;2023-03-20T01:21:34;99207.47;;;8.12;88.92
47815;BME280;33579;50.058;18.130;2023-03-20T01:22:35;99209.59;;;8.07;89.34
47815;BME280;33579;50.058;18.130;2023-03-20T01:23:37;99212.81;;;8.11;89.55
47815;BME280;33579;50.058;18.130;2023-03-20T01:24:39;99220.56;;;8.12;89.59
47815;BME280;33579;50.058;18.130;2023-03-20T01:25:41;99206.13;;;7.95;90.19
47815;BME280;33579;50.058;18.130;2023-03-20T01:26:44;99215.75;;;7.95;90.91
47815;BME280;33579;50.058;18.130;2023-03-20T01:27:49;99213.03;;;7.96;90.65
47815;BME280;33579;50.058;18.130;2023-03-20T01:28:51;99212.31;;;7.94;90.70
47815;BME280;33579;50.058;18.130;2023-03-20T01:29:53;99218.75;;;8.01;90.27
47815;BME280;33579;50.058;18.130;2023-03-20T01:30:55;99214.38;;;8.02;90.29
47815;BME280;33579;50.058;18.130;2023-03-20T01:31:57;99212.91;;;7.86;91.21
47815;BME280;33579;50.058;18.130;2023-03-20T01:33:00;99217.06;;;7.89;91.35
47815;BME280;33579;50.058;18.130;2023-03-20T01:34:09;99216.00;;;7.92;91.29
47815;BME280;33579;50.058;18.130;2023-03-20T01:35:12;99216.84;;;7.92;91.36
47815;BME280;33579;50.058;18.130;2023-03-20T01:36:17;99221.50;;;8.00;91.01
47815;BME280;33579;50.058;18.130;2023-03-20T01:37:25;99216.38;;;7.98;90.84
47815;BME280;33579;50.058;18.130;2023-03-20T01:38:28;99209.97;;;8.02;90.51
47815;BME280;33579;50.058;18.130;2023-03-20T01:39:34;99218.31;;;8.08;90.45
47815;BME280;33579;50.058;18.130;2023-03-20T01:40:56;99217.81;;;8.14;90.17
47815;BME280;33579;50.058;18.130;2023-03-20T01:42:03;99215.81;;;8.18;90.08
47815;BME280;33579;50.058;18.130;2023-03-20T01:43:16;99220.78;;;8.21;89.72
47815;BME280;33579;50.058;18.130;2023-03-20T01:44:30;99226.19;;;8.19;90.08
47815;BME280;33579;50.058;18.130;2023-03-20T01:45:34;99227.72;;;8.10;91.20
47815;BME280;33579;50.058;18.130;2023-03-20T01:46:37;99234.84;;;8.08;91.42
47815;BME280;33579;50.058;18.130;2023-03-20T01:47:47;99241.41;;;8.02;91.90
47815;BME280;33579;50.058;18.130;2023-03-20T01:50:51;99239.75;;;7.66;93.76
47815;BME280;33579;50.058;18.130;2023-03-20T01:51:50;99242.75;;;7.72;94.11
47815;BME280;33579;50.058;18.130;2023-03-20T01:52:59;99238.00;;;7.78;93.66
47815;BME280;33579;50.058;18.130;2023-03-20T01:55:39;99238.13;;;7.76;93.13
47815;BME280;33579;50.058;18.130;2023-03-20T01:58:14;99237.53;;;7.84;92.73
47815;BME280;33579;50.058;18.130;2023-03-20T01:59:30;99239.22;;;7.85;92.53
47815;BME280;33579;50.058;18.130;2023-03-20T02:00:36;99238.16;;;7.87;92.57
47815;BME280;33579;50.058;18.130;2023-03-20T02:01:41;99242.78;;;7.84;92.77
47815;BME280;33579;50.058;18.130;2023-03-20T02:02:45;99232.75;;;7.78;93.40
47815;BME280;33579;50.058;18.130;2023-03-20T02:04:02;99235.50;;;7.76;93.48
47815;BME280;33579;50.058;18.130;2023-03-20T02:05:20;99230.03;;;7.79;93.40
47815;BME280;33579;50.058;18.130;2023-03-20T02:06:24;99235.63;;;7.86;93.34
47815;BME280;33579;50.058;18.130;2023-03-20T02:07:45;99235.97;;;7.81;93.35
47815;BME280;33579;50.058;18.130;2023-03-20T02:08:52;99230.50;;;7.73;93.48
47815;BME280;33579;50.058;18.130;2023-03-20T02:09:55;99231.91;;;7.66;93.83
47815;BME280;33579;50.058;18.130;2023-03-20T02:11:10;99235.13;;;7.69;94.04
47815;BME280;33579;50.058;18.130;2023-03-20T02:12:13;99236.31;;;7.77;94.02
47815;BME280;33579;50.058;18.130;2023-03-20T02:13:15;99233.59;;;7.78;93.61
47815;BME280;33579;50.058;18.130;2023-03-20T02:14:21;99235.50;;;7.76;93.60
47815;BME280;33579;50.058;18.130;2023-03-20T02:15:31;99232.50;;;7.69;93.63
47815;BME280;33579;50.058;18.130;2023-03-20T02:16:46;99234.50;;;7.66;94.05
47815;BME280;33579;50.058;18.130;2023-03-20T02:18:24;99231.03;;;7.65;93.82
47815;BME280;33579;50.058;18.130;2023-03-20T02:19:34;99232.75;;;7.66;94.12
47815;BME280;33579;50.058;18.130;2023-03-20T02:20:53;99233.78;;;7.64;94.06
47815;BME280;33579;50.058;18.130;2023-03-20T02:28:44;99236.66;;;7.61;94.75
47815;BME280;33579;50.058;18.130;2023-03-20T02:32:50;99235.59;;;7.74;93.72
47815;BME280;33579;50.058;18.130;2023-03-20T02:36:10;99234.19;;;7.70;93.96
47815;BME280;33579;50.058;18.130;2023-03-20T02:40:19;99238.53;;;7.58;94.65
47815;BME280;33579;50.058;18.130;2023-03-20T02:41:42;99237.19;;;7.53;95.12
47815;BME280;33579;50.058;18.130;2023-03-20T02:42:58;99233.66;;;7.29;96.17
47815;BME280;33579;50.058;18.130;2023-03-20T02:45:26;99227.34;;;7.08;98.23
47815;BME280;33579;50.058;18.130;2023-03-20T02:46:59;99233.84;;;7.02;98.49
47815;BME280;33579;50.058;18.130;2023-03-20T02:48:19;99232.97;;;6.90;99.63
47815;BME280;33579;50.058;18.130;2023-03-20T02:49:55;99242.81;;;6.86;100.00
47815;BME280;33579;50.058;18.130;2023-03-20T02:52:53;99239.53;;;6.58;100.00
47815;BME280;33579;50.058;18.130;2023-03-20T02:56:59;99248.09;;;6.47;100.00
47815;BME280;33579;50.058;18.130;2023-03-20T02:58:23;99235.66;;;6.51;100.00
47815;BME280;33579;50.058;18.130;2023-03-20T03:00:47;99238.97;;;6.79;100.00
47815;BME280;33579;50.058;18.130;2023-03-20T03:02:19;99237.25;;;6.91;100.00
47815;BME280;33579;50.058;18.130;2023-03-20T03:03:36;99237.03;;;6.94;100.00
47815;BME280;33579;50.058;18.130;2023-03-20T03:04:43;99237.41;;;7.01;100.00
47815;BME280;33579;50.058;18.130;2023-03-20T03:05:53;99241.06;;;7.11;100.00
47815;BME280;33579;50.058;18.130;2023-03-20T03:06:56;99242.00;;;7.10;100.00
47815;BME280;33579;50.058;18.130;2023-03-20T03:07:59;99240.00;;;7.14;100.00
47815;BME280;33579;50.058;18.130;2023-03-20T03:09:17;99242.88;;;7.22;100.00
47815;BME280;33579;50.058;18.130;2023-03-20T03:10:27;99241.84;;;7.25;99.90
47815;BME280;33579;50.058;18.130;2023-03-20T03:11:33;99238.50;;;7.23;100.00
47815;BME280;33579;50.058;18.130;2023-03-20T03:12:42;99248.97;;;7.23;100.00
47815;BME280;33579;50.058;18.130;2023-03-20T03:13:48;99244.22;;;7.28;99.81
47815;BME280;33579;50.058;18.130;2023-03-20T03:14:54;99241.41;;;7.31;99.63
47815;BME280;33579;50.058;18.130;2023-03-20T03:16:01;99246.84;;;7.28;99.27
47815;BME280;33579;50.058;18.130;2023-03-20T03:17:07;99243.63;;;7.24;99.58
47815;BME280;33579;50.058;18.130;2023-03-20T03:18:14;99243.63;;;7.24;99.32
47815;BME280;33579;50.058;18.130;2023-03-20T03:19:21;99242.72;;;7.12;100.00
47815;BME280;33579;50.058;18.130;2023-03-20T03:20:29;99248.66;;;7.14;100.00
47815;BME280;33579;50.058;18.130;2023-03-20T03:21:35;99248.81;;;7.13;100.00
47815;BME280;33579;50.058;18.130;2023-03-20T03:22:37;99247.13;;;7.12;99.78
47815;BME280;33579;50.058;18.130;2023-03-20T03:23:49;99250.69;;;7.11;100.00
47815;BME280;33579;50.058;18.130;2023-03-20T03:24:53;99247.13;;;7.12;99.85
47815;BME280;33579;50.058;18.130;2023-03-20T03:25:57;99245.25;;;7.14;99.93
47815;BME280;33579;50.058;18.130;2023-03-20T03:27:04;99251.63;;;7.10;100.00
47815;BME280;33579;50.058;18.130;2023-03-20T03:28:34;99247.22;;;7.10;100.00
47815;BME280;33579;50.058;18.130;2023-03-20T03:29:38;99246.28;;;7.11;100.00
47815;BME280;33579;50.058;18.130;2023-03-20T03:30:41;99246.06;;;7.14;100.00
47815;BME280;33579;50.058;18.130;2023-03-20T03:31:44;99252.03;;;7.16;100.00
47815;BME280;33579;50.058;18.130;2023-03-20T03:32:49;99248.09;;;7.11;100.00
47815;BME280;33579;50.058;18.130;2023-03-20T03:33:56;99244.00;;;7.07;100.00
47815;BME280;33579;50.058;18.130;2023-03-20T03:35:00;99246.00;;;7.03;100.00
47815;BME280;33579;50.058;18.130;2023-03-20T03:37:40;99256.03;;;7.09;100.00
47815;BME280;33579;50.058;18.130;2023-03-20T03:40:04;99240.34;;;7.09;100.00
47815;BME280;33579;50.058;18.130;2023-03-20T03:42:30;99239.16;;;7.13;100.00
47815;BME280;33579;50.058;18.130;2023-03-20T03:44:21;99236.06;;;7.08;100.00
47815;BME280;33579;50.058;18.130;2023-03-20T03:45:09;99236.78;;;7.10;100.00
47815;BME280;33579;50.058;18.130;2023-03-20T03:46:18;99234.41;;;6.94;100.00
47815;BME280;33579;50.058;18.130;2023-03-20T03:47:39;99239.00;;;7.03;100.00
47815;BME280;33579;50.058;18.130;2023-03-20T03:48:47;99239.09;;;7.02;100.00
47815;BME280;33579;50.058;18.130;2023-03-20T03:49:56;99232.00;;;7.04;100.00
47815;BME280;33579;50.058;18.130;2023-03-20T03:51:03;99226.75;;;7.04;100.00
47815;BME280;33579;50.058;18.130;2023-03-20T03:52:14;99237.75;;;6.96;100.00
47815;BME280;33579;50.058;18.130;2023-03-20T03:53:28;99241.13;;;6.85;100.00
47815;BME280;33579;50.058;18.130;2023-03-20T03:54:40;99232.59;;;6.70;100.00
47815;BME280;33579;50.058;18.130;2023-03-20T03:56:08;99239.94;;;6.52;100.00
47815;BME280;33579;50.058;18.130;2023-03-20T03:57:15;99241.31;;;6.45;100.00
47815;BME280;33579;50.058;18.130;2023-03-20T03:58:47;99232.09;;;6.52;100.00
47815;BME280;33579;50.058;18.130;2023-03-20T03:59:50;99237.22;;;6.54;100.00
47815;BME280;33579;50.058;18.130;2023-03-20T04:00:54;99230.63;;;6.61;100.00
47815;BME280;33579;50.058;18.130;2023-03-20T04:01:57;99236.06;;;6.71;100.00
47815;BME280;33579;50.058;18.130;2023-03-20T04:02:59;99238.63;;;6.84;100.00
47815;BME280;33579;50.058;18.130;2023-03-20T04:04:04;99222.84;;;6.85;100.00
47815;BME280;33579;50.058;18.130;2023-03-20T04:05:08;99231.06;;;6.92;100.00
47815;BME280;33579;50.058;18.130;2023-03-20T04:06:11;99222.06;;;6.96;100.00
47815;BME280;33579;50.058;18.130;2023-03-20T04:07:13;99231.56;;;6.97;100.00
47815;BME280;33579;50.058;18.130;2023-03-20T04:08:15;99229.56;;;7.01;100.00
47815;BME280;33579;50.058;18.130;2023-03-20T04:09:16;99226.63;;;7.06;100.00
47815;BME280;33579;50.058;18.130;2023-03-20T04:10:18;99239.38;;;7.10;100.00
47815;BME280;33579;50.058;18.130;2023-03-20T04:11:23;99232.16;;;7.14;100.00
47815;BME280;33579;50.058;18.130;2023-03-20T04:12:32;99238.72;;;7.20;100.00
47815;BME280;33579;50.058;18.130;2023-03-20T04:13:34;99232.03;;;7.15;100.00
47815;BME280;33579;50.058;18.130;2023-03-20T04:14:36;99241.00;;;7.24;100.00
47815;BME280;33579;50.058;18.130;2023-03-20T04:15:37;99231.59;;;7.22;100.00
47815;BME280;33579;50.058;18.130;2023-03-20T04:16:41;99233.25;;;7.23;100.00
47815;BME280;33579;50.058;18.130;2023-03-20T04:17:43;99237.44;;;7.25;100.00
47815;BME280;33579;50.058;18.130;2023-03-20T04:18:47;99240.69;;;7.29;100.00
47815;BME280;33579;50.058;18.130;2023-03-20T04:19:49;99246.75;;;7.29;100.00
47815;BME280;33579;50.058;18.130;2023-03-20T04:20:52;99249.03;;;7.34;100.00
47815;BME280;33579;50.058;18.130;2023-03-20T04:21:54;99247.25;;;7.35;100.00
47815;BME280;33579;50.058;18.130;2023-03-20T04:22:55;99247.13;;;7.36;100.00
47815;BME280;33579;50.058;18.130;2023-03-20T04:23:57;99244.28;;;7.39;100.00
47815;BME280;33579;50.058;18.130;2023-03-20T04:25:00;99249.31;;;7.42;100.00
47815;BME280;33579;50.058;18.130;2023-03-20T04:26:03;99240.00;;;7.38;100.00
47815;BME280;33579;50.058;18.130;2023-03-20T04:27:07;99242.41;;;7.41;100.00
47815;BME280;33579;50.058;18.130;2023-03-20T04:28:11;99243.94;;;7.44;100.00
47815;BME280;33579;50.058;18.130;2023-03-20T04:29:28;99239.56;;;7.44;100.00
47815;BME280;33579;50.058;18.130;2023-03-20T04:30:58;99236.94;;;7.44;100.00
47815;BME280;33579;50.058;18.130;2023-03-20T04:32:18;99242.13;;;7.33;100.00
47815;BME280;33579;50.058;18.130;2023-03-20T04:33:52;99243.16;;;7.30;100.00
47815;BME280;33579;50.058;18.130;2023-03-20T04:35:12;99240.31;;;7.34;100.00
47815;BME280;33579;50.058;18.130;2023-03-20T04:36:31;99244.84;;;7.31;100.00
47815;BME280;33579;50.058;18.130;2023-03-20T04:37:32;99244.63;;;7.35;100.00
47815;BME280;33579;50.058;18.130;2023-03-20T04:38:39;99244.03;;;7.31;100.00
47815;BME280;33579;50.058;18.130;2023-03-20T04:39:41;99244.44;;;7.25;100.00
47815;BME280;33579;50.058;18.130;2023-03-20T04:40:43;99241.84;;;7.25;100.00
47815;BME280;33579;50.058;18.130;2023-03-20T04:41:45;99253.03;;;7.27;100.00
47815;BME280;33579;50.058;18.130;2023-03-20T04:42:47;99247.69;;;7.28;100.00
47815;BME280;33579;50.058;18.130;2023-03-20T04:43:48;99241.41;;;7.31;100.00
47815;BME280;33579;50.058;18.130;2023-03-20T04:44:50;99244.63;;;7.35;100.00
47815;BME280;33579;50.058;18.130;2023-03-20T04:45:52;99252.38;;;7.36;100.00
47815;BME280;33579;50.058;18.130;2023-03-20T04:46:54;99250.69;;;7.35;100.00
47815;BME280;33579;50.058;18.130;2023-03-20T04:47:56;99247.25;;;7.35;100.00
47815;BME280;33579;50.058;18.130;2023-03-20T04:48:58;99243.06;;;7.32;100.00
47815;BME280;33579;50.058;18.130;2023-03-20T04:50:03;99248.31;;;7.32;100.00
47815;BME280;33579;50.058;18.130;2023-03-20T04:51:05;99249.13;;;7.32;100.00
47815;BME280;33579;50.058;18.130;2023-03-20T04:52:24;99248.06;;;7.35;100.00
47815;BME280;33579;50.058;18.130;2023-03-20T04:53:25;99257.50;;;7.38;100.00
47815;BME280;33579;50.058;18.130;2023-03-20T04:54:28;99253.06;;;7.38;100.00
47815;BME280;33579;50.058;18.130;2023-03-20T04:55:30;99247.13;;;7.36;100.00
47815;BME280;33579;50.058;18.130;2023-03-20T04:56:33;99253.31;;;7.35;100.00
47815;BME280;33579;50.058;18.130;2023-03-20T04:57:45;99250.06;;;7.31;100.00
47815;BME280;33579;50.058;18.130;2023-03-20T04:58:47;99251.03;;;7.30;100.00
47815;BME280;33579;50.058;18.130;2023-03-20T04:59:50;99254.25;;;7.34;100.00
47815;BME280;33579;50.058;18.130;2023-03-20T05:00:52;99249.03;;;7.34;100.00
47815;BME280;33579;50.058;18.130;2023-03-20T05:01:55;99244.97;;;7.30;100.00
47815;BME280;33579;50.058;18.130;2023-03-20T05:02:56;99253.88;;;7.27;100.00
47815;BME280;33579;50.058;18.130;2023-03-20T05:03:58;99245.78;;;7.30;100.00
47815;BME280;33579;50.058;18.130;2023-03-20T05:05:03;99251.88;;;7.31;100.00
47815;BME280;33579;50.058;18.130;2023-03-20T05:06:08;99254.50;;;7.31;100.00
47815;BME280;33579;50.058;18.130;2023-03-20T05:07:14;99251.34;;;7.26;100.00
47815;BME280;33579;50.058;18.130;2023-03-20T05:08:27;99254.09;;;7.24;100.00
47815;BME280;33579;50.058;18.130;2023-03-20T05:09:33;99255.06;;;7.23;100.00
47815;BME280;33579;50.058;18.130;2023-03-20T05:10:37;99248.25;;;7.21;100.00
47815;BME280;33579;50.058;18.130;2023-03-20T05:11:46;99255.16;;;7.22;100.00
47815;BME280;33579;50.058;18.130;2023-03-20T05:13:08;99260.38;;;7.22;100.00
47815;BME280;33579;50.058;18.130;2023-03-20T05:14:29;99255.16;;;7.22;100.00
47815;BME280;33579;50.058;18.130;2023-03-20T05:16:00;99263.00;;;7.22;100.00
47815;BME280;33579;50.058;18.130;2023-03-20T05:17:13;99265.63;;;7.22;100.00
47815;BME280;33579;50.058;18.130;2023-03-20T05:18:34;99268.56;;;7.17;100.00
47815;BME280;33579;50.058;18.130;2023-03-20T05:19:59;99267.53;;;7.07;100.00
47815;BME280;33579;50.058;18.130;2023-03-20T05:21:14;99268.53;;;6.93;100.00
47815;BME280;33579;50.058;18.130;2023-03-20T05:22:36;99270.94;;;6.96;100.00
47815;BME280;33579;50.058;18.130;2023-03-20T05:24:00;99267.28;;;6.98;100.00
47815;BME280;33579;50.058;18.130;2023-03-20T05:25:34;99264.19;;;7.05;100.00
47815;BME280;33579;50.058;18.130;2023-03-20T05:26:49;99269.84;;;7.11;100.00
47815;BME280;33579;50.058;18.130;2023-03-20T05:28:06;99269.22;;;7.08;100.00
47815;BME280;33579;50.058;18.130;2023-03-20T05:29:19;99267.22;;;7.11;100.00
47815;BME280;33579;50.058;18.130;2023-03-20T05:30:40;99277.13;;;7.19;100.00
47815;BME280;33579;50.058;18.130;2023-03-20T05:32:01;99272.63;;;7.21;100.00
47815;BME280;33579;50.058;18.130;2023-03-20T05:33:11;99275.84;;;7.25;100.00
47815;BME280;33579;50.058;18.130;2023-03-20T05:34:52;99278.25;;;7.28;100.00
47815;BME280;33579;50.058;18.130;2023-03-20T05:35:59;99274.72;;;7.29;100.00
47815;BME280;33579;50.058;18.130;2023-03-20T05:37:21;99270.28;;;7.29;100.00
47815;BME280;33579;50.058;18.130;2023-03-20T05:38:49;99271.72;;;7.34;100.00
47815;BME280;33579;50.058;18.130;2023-03-20T05:40:14;99275.81;;;7.38;100.00
47815;BME280;33579;50.058;18.130;2023-03-20T05:41:34;99278.66;;;7.35;100.00
47815;BME280;33579;50.058;18.130;2023-03-20T05:42:55;99276.63;;;7.38;100.00
47815;BME280;33579;50.058;18.130;2023-03-20T05:44:15;99271.31;;;7.40;100.00
47815;BME280;33579;50.058;18.130;2023-03-20T05:45:28;99278.09;;;7.42;100.00
47815;BME280;33579;50.058;18.130;2023-03-20T05:47:01;99278.38;;;7.51;100.00
47815;BME280;33579;50.058;18.130;2023-03-20T05:48:26;99279.31;;;7.50;100.00
47815;BME280;33579;50.058;18.130;2023-03-20T05:49:48;99285.16;;;7.53;100.00
47815;BME280;33579;50.058;18.130;2023-03-20T05:50:58;99291.97;;;7.56;100.00
47815;BME280;33579;50.058;18.130;2023-03-20T05:52:18;99291.25;;;7.54;100.00
47815;BME280;33579;50.058;18.130;2023-03-20T05:53:58;99289.22;;;7.57;100.00
47815;BME280;33579;50.058;18.130;2023-03-20T05:55:16;99286.59;;;7.57;100.00
47815;BME280;33579;50.058;18.130;2023-03-20T05:56:28;99286.59;;;7.57;100.00
47815;BME280;33579;50.058;18.130;2023-03-20T05:57:52;99291.03;;;7.57;100.00
47815;BME280;33579;50.058;18.130;2023-03-20T05:59:13;99292.78;;;7.56;100.00
47815;BME280;33579;50.058;18.130;2023-03-20T06:00:26;99291.63;;;7.61;100.00
47815;BME280;33579;50.058;18.130;2023-03-20T06:01:47;99298.53;;;7.62;100.00
47815;BME280;33579;50.058;18.130;2023-03-20T06:02:57;99295.41;;;7.56;100.00
47815;BME280;33579;50.058;18.130;2023-03-20T06:04:20;99292.31;;;7.51;100.00
47815;BME280;33579;50.058;18.130;2023-03-20T06:05:51;99300.25;;;7.50;100.00
47815;BME280;33579;50.058;18.130;2023-03-20T06:06:53;99294.06;;;7.51;100.00
47815;BME280;33579;50.058;18.130;2023-03-20T06:07:55;99298.34;;;7.52;100.00
47815;BME280;33579;50.058;18.130;2023-03-20T06:08:56;99298.16;;;7.55;100.00
47815;BME280;33579;50.058;18.130;2023-03-20T06:09:59;99294.59;;;7.56;100.00
47815;BME280;33579;50.058;18.130;2023-03-20T06:11:02;99300.31;;;7.61;100.00
47815;BME280;33579;50.058;18.130;2023-03-20T06:12:06;99293.16;;;7.63;100.00
47815;BME280;33579;50.058;18.130;2023-03-20T06:13:08;99298.31;;;7.65;100.00
47815;BME280;33579;50.058;18.130;2023-03-20T06:14:09;99299.13;;;7.65;100.00
47815;BME280;33579;50.058;18.130;2023-03-20T06:15:15;99305.94;;;7.68;100.00
47815;BME280;33579;50.058;18.130;2023-03-20T06:16:23;99309.41;;;7.68;100.00
47815;BME280;33579;50.058;18.130;2023-03-20T06:17:25;99308.31;;;7.71;100.00
47815;BME280;33579;50.058;18.130;2023-03-20T06:18:33;99308.31;;;7.71;100.00
47815;BME280;33579;50.058;18.130;2023-03-20T06:19:35;99303.69;;;7.74;100.00
47815;BME280;33579;50.058;18.130;2023-03-20T06:20:36;99307.28;;;7.73;100.00
47815;BME280;33579;50.058;18.130;2023-03-20T06:21:38;99307.28;;;7.73;100.00
47815;BME280;33579;50.058;18.130;2023-03-20T06:22:44;99308.13;;;7.74;100.00
47815;BME280;33579;50.058;18.130;2023-03-20T06:23:49;99304.31;;;7.78;100.00
47815;BME280;33579;50.058;18.130;2023-03-20T06:24:51;99308.13;;;7.74;100.00
47815;BME280;33579;50.058;18.130;2023-03-20T06:25:53;99312.28;;;7.77;100.00
47815;BME280;33579;50.058;18.130;2023-03-20T06:26:55;99313.84;;;7.79;100.00
47815;BME280;33579;50.058;18.130;2023-03-20T06:27:58;99306.84;;;7.80;100.00
47815;BME280;33579;50.058;18.130;2023-03-20T06:29:00;99309.84;;;7.86;100.00
47815;BME280;33579;50.058;18.130;2023-03-20T06:30:03;99307.69;;;7.92;100.00
47815;BME280;33579;50.058;18.130;2023-03-20T06:31:08;99307.34;;;7.96;100.00
47815;BME280;33579;50.058;18.130;2023-03-20T06:32:09;99310.69;;;7.98;100.00
47815;BME280;33579;50.058;18.130;2023-03-20T06:33:12;99309.03;;;7.97;100.00
47815;BME280;33579;50.058;18.130;2023-03-20T06:34:43;99307.69;;;7.92;100.00